createdAt,value
2022-12-23T00:00:27.858Z,11.31
2022-12-23T00:02:54.936Z,11.28
2022-12-23T00:05:21.560Z,11.32
2022-12-23T00:07:48.060Z,11.33
2022-12-23T00:10:14.509Z,11.31
2022-12-23T00:12:59.452Z,11.31
2022-12-23T00:15:25.841Z,11.29
2022-12-23T00:17:52.483Z,11.29
2022-12-23T00:20:18.992Z,11.30
2022-12-23T00:23:04.285Z,11.21
2022-12-23T00:25:40.376Z,11.25
2022-12-23T00:28:07.180Z,11.21
2022-12-23T00:30:33.551Z,11.22
2022-12-23T00:33:00.008Z,11.24
2022-12-23T00:35:29.147Z,11.25
2022-12-23T00:37:55.654Z,11.21
2022-12-23T00:40:40.822Z,11.19
2022-12-23T00:43:07.507Z,11.13
2022-12-23T00:45:33.925Z,11.12
2022-12-23T00:48:19.110Z,11.13
2022-12-23T00:50:45.796Z,11.11
2022-12-23T00:53:12.408Z,11.11
2022-12-23T00:55:38.795Z,11.09
2022-12-23T00:58:05.324Z,11.00
2022-12-23T01:00:50.438Z,11.01
2022-12-23T01:03:35.831Z,11.02
2022-12-23T01:06:03.192Z,11.02
2022-12-23T01:08:29.977Z,11.04
2022-12-23T01:10:56.638Z,11.01
2022-12-23T01:13:23.062Z,11.01
2022-12-23T01:15:49.668Z,10.99
2022-12-23T01:18:16.143Z,10.95
2022-12-23T01:20:42.544Z,10.95
2022-12-23T01:23:09.051Z,10.96
2022-12-23T01:25:35.441Z,11.00
2022-12-23T01:28:02.338Z,10.95
2022-12-23T01:30:28.684Z,10.92
2022-12-23T01:32:55.017Z,10.92
2022-12-23T01:35:21.601Z,10.91
2022-12-23T01:37:48.469Z,10.86
2022-12-23T01:40:14.961Z,10.85
2022-12-23T01:42:44.389Z,10.84
2022-12-23T01:45:21.214Z,10.86
2022-12-23T01:47:47.557Z,10.81
2022-12-23T01:50:21.808Z,10.85
2022-12-23T01:52:51.221Z,10.79
2022-12-23T01:55:20.803Z,10.81
2022-12-23T01:57:48.198Z,10.77
2022-12-23T02:00:53.577Z,10.73
2022-12-23T02:03:38.548Z,10.72
2022-12-23T02:06:23.932Z,10.69
2022-12-23T02:09:08.673Z,10.68
2022-12-23T02:11:53.788Z,10.71
2022-12-23T02:14:41.761Z,10.68
2022-12-23T02:17:26.792Z,10.61
2022-12-23T02:19:56.166Z,10.57
2022-12-23T02:22:22.476Z,10.53
2022-12-23T02:24:59.037Z,10.48
2022-12-23T02:27:48.419Z,10.48
2022-12-23T02:30:53.268Z,10.42
2022-12-23T02:33:30.377Z,10.44
2022-12-23T02:35:56.687Z,10.46
2022-12-23T02:38:25.903Z,10.49
2022-12-23T02:41:11.132Z,10.44
2022-12-23T02:43:40.593Z,10.44
2022-12-23T02:46:09.715Z,10.43
2022-12-23T02:49:01.191Z,10.39
2022-12-23T02:51:31.614Z,10.41
2022-12-23T02:54:04.004Z,10.39
2022-12-23T02:56:32.214Z,10.33
2022-12-23T02:59:02.241Z,10.26
2022-12-23T03:01:31.070Z,10.29
2022-12-23T03:03:57.605Z,10.26
2022-12-23T03:06:32.876Z,10.21
2022-12-23T03:08:59.728Z,10.16
2022-12-23T03:11:49.085Z,10.17
2022-12-23T03:14:15.415Z,10.14
2022-12-23T03:16:51.472Z,10.10
2022-12-23T03:19:26.252Z,10.12
2022-12-23T03:21:58.195Z,10.15
2022-12-23T03:24:32.684Z,10.12
2022-12-23T03:27:07.312Z,10.07
2022-12-23T03:29:41.078Z,10.10
2022-12-23T03:32:09.102Z,10.09
2022-12-23T03:34:37.435Z,10.08
2022-12-23T03:37:06.278Z,10.05
2022-12-23T03:39:35.704Z,10.05
2022-12-23T03:42:05.810Z,10.05
2022-12-23T03:44:35.310Z,10.05
2022-12-23T03:47:05.826Z,10.01
2022-12-23T03:49:34.988Z,10.00
2022-12-23T03:52:07.493Z,9.99
2022-12-23T03:54:38.102Z,9.97
2022-12-23T03:57:06.050Z,9.99
2022-12-23T03:59:35.542Z,9.97
2022-12-23T04:02:20.827Z,9.83
2022-12-23T04:04:59.447Z,9.76
2022-12-23T04:07:30.378Z,9.80
2022-12-23T04:09:57.431Z,9.79
2022-12-23T04:12:24.676Z,9.65
2022-12-23T04:14:51.609Z,9.62
2022-12-23T04:17:18.717Z,9.75
2022-12-23T04:19:45.877Z,9.74
2022-12-23T04:22:12.667Z,9.69
2022-12-23T04:24:39.297Z,9.68
2022-12-23T04:27:06.453Z,9.75
2022-12-23T04:29:33.153Z,9.71
2022-12-23T04:31:59.630Z,9.71
2022-12-23T04:34:26.069Z,9.77
2022-12-23T04:36:52.460Z,9.76
2022-12-23T04:39:18.812Z,9.78
2022-12-23T04:41:45.380Z,9.74
2022-12-23T04:44:11.739Z,9.68
2022-12-23T04:46:38.141Z,9.72
2022-12-23T04:49:04.531Z,9.70
2022-12-23T04:51:30.896Z,9.67
2022-12-23T04:53:57.265Z,9.68
2022-12-23T04:56:23.632Z,9.61
2022-12-23T04:58:49.944Z,9.68
2022-12-23T05:01:16.360Z,9.63
2022-12-23T05:03:42.836Z,9.67
2022-12-23T05:06:09.592Z,9.66
2022-12-23T05:08:35.900Z,9.67
2022-12-23T05:11:02.288Z,9.62
2022-12-23T05:13:28.681Z,9.63
2022-12-23T05:15:55.440Z,9.62
2022-12-23T05:18:22.459Z,9.64
2022-12-23T05:20:49.107Z,9.62
2022-12-23T05:23:15.675Z,9.61
2022-12-23T05:25:42.052Z,9.59
2022-12-23T05:28:09.479Z,9.58
2022-12-23T05:30:35.862Z,9.46
2022-12-23T05:33:02.287Z,9.51
2022-12-23T05:35:28.694Z,9.50
2022-12-23T05:37:55.031Z,9.53
2022-12-23T05:40:24.135Z,9.54
2022-12-23T05:42:55.049Z,9.56
2022-12-23T05:45:22.009Z,9.52
2022-12-23T05:47:48.355Z,9.54
2022-12-23T05:50:14.709Z,9.54
2022-12-23T05:52:41.275Z,9.53
2022-12-23T05:55:08.087Z,9.53
2022-12-23T05:57:34.516Z,9.57
2022-12-23T06:00:01.027Z,9.59
2022-12-23T06:02:27.506Z,9.57
2022-12-23T06:04:54.022Z,9.59
2022-12-23T06:07:20.436Z,9.61
2022-12-23T06:09:46.761Z,9.57
2022-12-23T06:12:13.121Z,9.56
2022-12-23T06:14:39.499Z,9.56
2022-12-23T06:17:05.949Z,9.55
2022-12-23T06:19:32.293Z,9.54
2022-12-23T06:21:58.585Z,9.53
2022-12-23T06:24:25.164Z,9.51
2022-12-23T06:26:56.854Z,9.52
2022-12-23T06:29:24.302Z,9.50
2022-12-23T06:31:50.817Z,9.48
2022-12-23T06:34:17.400Z,9.49
2022-12-23T06:36:43.734Z,9.51
2022-12-23T06:39:10.341Z,9.52
2022-12-23T06:41:36.914Z,9.54
2022-12-23T06:44:03.559Z,9.58
2022-12-23T06:46:30.036Z,9.58
2022-12-23T06:48:56.541Z,9.59
2022-12-23T06:51:22.969Z,9.61
2022-12-23T06:53:49.279Z,9.64
2022-12-23T06:56:15.605Z,9.65
2022-12-23T06:58:42.237Z,9.64
2022-12-23T07:01:10.247Z,9.65
2022-12-23T07:03:36.981Z,9.66
2022-12-23T07:06:03.653Z,9.67
2022-12-23T07:08:30.073Z,9.66
2022-12-23T07:10:59.706Z,9.67
2022-12-23T07:13:26.542Z,9.69
2022-12-23T07:15:52.972Z,9.68
2022-12-23T07:18:19.327Z,9.67
2022-12-23T07:20:45.675Z,9.67
2022-12-23T07:23:12.067Z,9.68
2022-12-23T07:25:38.375Z,9.70
2022-12-23T07:28:05.110Z,9.70
2022-12-23T07:30:31.441Z,9.71
2022-12-23T07:32:57.773Z,9.73
2022-12-23T07:35:24.269Z,9.74
2022-12-23T07:37:51.329Z,9.75
2022-12-23T07:40:17.718Z,9.77
2022-12-23T07:42:46.285Z,9.76
2022-12-23T07:45:16.705Z,9.79
2022-12-23T07:47:43.217Z,9.78
2022-12-23T07:50:09.983Z,9.78
2022-12-23T07:52:36.571Z,9.78
2022-12-23T07:55:02.917Z,9.80
2022-12-23T07:57:29.555Z,9.79
2022-12-23T07:59:55.874Z,9.81
2022-12-23T08:02:25.086Z,9.86
2022-12-23T08:04:52.026Z,9.86
2022-12-23T08:07:18.455Z,9.79
2022-12-23T08:09:44.853Z,9.82
2022-12-23T08:12:11.192Z,9.84
2022-12-23T08:14:37.563Z,9.84
2022-12-23T08:17:03.931Z,9.86
2022-12-23T08:19:30.254Z,9.88
2022-12-23T08:21:56.607Z,9.87
2022-12-23T08:24:22.966Z,9.84
2022-12-23T08:26:49.527Z,9.87
2022-12-23T08:29:16.221Z,9.86
2022-12-23T08:31:42.775Z,9.84
2022-12-23T08:34:09.174Z,9.83
2022-12-23T08:36:35.956Z,9.76
2022-12-23T08:39:05.085Z,9.69
2022-12-23T08:41:33.106Z,9.70
2022-12-23T08:43:59.760Z,9.73
2022-12-23T08:46:26.313Z,9.76
2022-12-23T08:48:53.196Z,9.76
2022-12-23T08:51:20.291Z,9.76
2022-12-23T08:53:46.817Z,9.79
2022-12-23T08:56:14.578Z,9.85
2022-12-23T08:58:42.474Z,9.90
2022-12-23T09:01:10.055Z,9.90
2022-12-23T09:03:37.220Z,9.93
2022-12-23T09:06:07.288Z,9.92
2022-12-23T09:08:34.314Z,9.84
2022-12-23T09:11:01.340Z,9.81
2022-12-23T09:13:34.887Z,9.87
2022-12-23T09:16:02.293Z,9.88
2022-12-23T09:18:28.744Z,9.85
2022-12-23T09:21:02.179Z,9.86
2022-12-23T09:23:28.753Z,9.90
2022-12-23T09:25:55.559Z,9.83
2022-12-23T09:28:22.446Z,9.78
2022-12-23T09:30:48.880Z,9.74
2022-12-23T09:33:17.561Z,9.61
2022-12-23T09:35:44.385Z,9.50
2022-12-23T09:38:10.847Z,9.60
2022-12-23T09:40:38.738Z,9.72
2022-12-23T09:43:12.620Z,9.77
2022-12-23T09:45:49.638Z,9.78
2022-12-23T09:48:18.707Z,9.79
2022-12-23T09:50:46.626Z,9.75
2022-12-23T09:53:15.156Z,9.68
2022-12-23T09:55:48.956Z,9.76
2022-12-23T09:58:22.757Z,9.90
2022-12-23T10:01:09.363Z,9.96
2022-12-23T10:03:41.760Z,9.90
2022-12-23T10:06:15.825Z,9.86
2022-12-23T10:08:47.161Z,9.90
2022-12-23T10:11:28.052Z,9.87
2022-12-23T10:14:03.140Z,9.92
2022-12-23T10:16:35.318Z,9.95
2022-12-23T10:19:04.136Z,9.93
2022-12-23T10:21:36.647Z,10.03
2022-12-23T10:24:06.985Z,9.72
2022-12-23T10:26:43.049Z,9.76
2022-12-23T10:29:19.006Z,9.58
2022-12-23T10:32:09.165Z,9.76
2022-12-23T10:34:54.450Z,9.84
2022-12-23T10:37:23.676Z,9.61
2022-12-23T10:40:03.222Z,9.78
2022-12-23T10:42:36.342Z,9.82
2022-12-23T10:45:22.210Z,9.83
2022-12-23T10:48:14.437Z,9.91
2022-12-23T10:50:46.098Z,9.82
2022-12-23T10:53:15.686Z,9.89
2022-12-23T10:55:42.441Z,9.91
2022-12-23T10:58:12.923Z,9.85
2022-12-23T11:00:41.213Z,9.92
2022-12-23T11:03:19.910Z,9.96
2022-12-23T11:05:49.422Z,9.91
2022-12-23T11:08:15.809Z,9.78
2022-12-23T11:10:42.394Z,9.88
2022-12-23T11:13:08.739Z,9.81
2022-12-23T11:15:39.907Z,9.79
2022-12-23T11:18:06.337Z,9.80
2022-12-23T11:20:33.546Z,9.90
2022-12-23T11:23:04.164Z,9.91
2022-12-23T11:25:30.451Z,9.80
2022-12-23T11:28:21.999Z,9.88
2022-12-23T11:30:59.986Z,9.80
2022-12-23T11:33:28.349Z,9.91
2022-12-23T11:36:07.346Z,9.95
2022-12-23T11:38:35.250Z,9.74
2022-12-23T11:41:02.811Z,9.79
2022-12-23T11:43:30.711Z,9.82
2022-12-23T11:46:17.170Z,9.69
2022-12-23T11:48:43.636Z,9.83
2022-12-23T11:51:10.007Z,9.92
2022-12-23T11:53:36.665Z,9.94
2022-12-23T11:56:06.612Z,9.97
2022-12-23T11:58:59.220Z,9.79
2022-12-23T12:01:25.873Z,9.76
2022-12-23T12:04:15.218Z,9.89
2022-12-23T12:06:43.582Z,9.90
2022-12-23T12:09:12.163Z,9.90
2022-12-23T12:11:39.842Z,9.98
2022-12-23T12:14:08.523Z,9.91
2022-12-23T12:16:37.920Z,9.89
2022-12-23T12:19:10.311Z,9.81
2022-12-23T12:21:38.291Z,9.88
2022-12-23T12:24:18.684Z,9.89
2022-12-23T12:26:50.834Z,9.91
2022-12-23T12:29:21.044Z,9.79
2022-12-23T12:31:48.925Z,9.91
2022-12-23T12:34:18.377Z,9.92
2022-12-23T12:36:44.782Z,9.99
2022-12-23T12:39:18.082Z,9.95
2022-12-23T12:42:01.825Z,9.93
2022-12-23T12:44:39.490Z,9.88
2022-12-23T12:47:36.120Z,9.90
2022-12-23T12:49:59.125Z,9.89
2022-12-23T12:52:27.050Z,9.97
2022-12-23T12:54:59.100Z,9.82
2022-12-23T12:57:26.643Z,10.02
2022-12-23T12:59:58.563Z,10.05
2022-12-23T13:02:28.150Z,9.98
2022-12-23T13:05:13.569Z,10.03
2022-12-23T13:08:04.024Z,9.99
2022-12-23T13:10:49.661Z,9.90
2022-12-23T13:13:28.944Z,9.92
2022-12-23T13:16:01.528Z,9.97
2022-12-23T13:18:38.770Z,9.96
2022-12-23T13:21:14.499Z,9.94
2022-12-23T13:24:03.830Z,10.04
2022-12-23T13:26:31.302Z,10.04
2022-12-23T13:29:17.515Z,9.99
2022-12-23T13:31:58.037Z,9.98
2022-12-23T13:34:35.751Z,10.04
2022-12-23T13:37:20.711Z,10.10
2022-12-23T13:39:47.280Z,9.96
2022-12-23T13:42:25.000Z,10.06
2022-12-23T13:44:51.838Z,10.12
2022-12-23T13:47:24.261Z,10.06
2022-12-23T13:50:05.922Z,10.08
2022-12-23T13:52:32.254Z,10.05
2022-12-23T13:55:06.622Z,10.04
2022-12-23T13:57:36.004Z,10.11
2022-12-23T14:00:18.600Z,10.13
2022-12-23T14:03:14.309Z,10.14
2022-12-23T14:05:50.750Z,10.22
2022-12-23T14:08:20.433Z,10.19
2022-12-23T14:10:59.517Z,10.22
2022-12-23T14:13:28.898Z,10.27
2022-12-23T14:15:58.319Z,10.29
2022-12-23T14:18:30.594Z,10.31
2022-12-23T14:21:08.242Z,10.25
2022-12-23T14:23:40.506Z,10.21
2022-12-23T14:26:06.859Z,10.24
2022-12-23T14:28:45.408Z,10.25
2022-12-23T14:31:33.926Z,10.12
2022-12-23T14:34:05.434Z,10.18
2022-12-23T14:36:32.077Z,10.20
2022-12-23T14:39:13.779Z,10.24
2022-12-23T14:41:53.407Z,10.29
2022-12-23T14:44:21.184Z,10.31
2022-12-23T14:46:47.590Z,10.25
2022-12-23T14:49:39.465Z,10.32
2022-12-23T14:52:25.245Z,10.36
2022-12-23T14:55:21.037Z,10.40
2022-12-23T14:57:40.421Z,10.41
2022-12-23T15:00:07.064Z,10.39
2022-12-23T15:02:36.309Z,10.40
2022-12-23T15:05:03.549Z,10.36
2022-12-23T15:07:34.553Z,10.27
2022-12-23T15:10:21.365Z,10.30
2022-12-23T15:12:49.141Z,10.35
2022-12-23T15:15:20.013Z,10.39
2022-12-23T15:17:48.999Z,10.40
2022-12-23T15:20:26.308Z,10.35
2022-12-23T15:22:52.742Z,10.29
2022-12-23T15:25:26.916Z,10.29
2022-12-23T15:28:01.200Z,10.37
2022-12-23T15:30:29.819Z,10.27
2022-12-23T15:32:58.249Z,10.32
2022-12-23T15:35:26.390Z,10.40
2022-12-23T15:37:52.956Z,10.43
2022-12-23T15:40:26.999Z,10.39
2022-12-23T15:42:53.491Z,10.27
2022-12-23T15:45:22.700Z,10.19
2022-12-23T15:47:49.662Z,10.13
2022-12-23T15:50:17.321Z,10.11
2022-12-23T15:52:45.147Z,10.13
2022-12-23T15:55:23.076Z,10.16
2022-12-23T15:57:50.956Z,10.15
2022-12-23T16:00:22.376Z,10.21
2022-12-23T16:03:00.383Z,10.28
2022-12-23T16:05:30.581Z,10.30
2022-12-23T16:08:11.853Z,10.33
2022-12-23T16:10:38.932Z,10.37
2022-12-23T16:13:15.150Z,10.27
2022-12-23T16:15:41.512Z,10.37
2022-12-23T16:18:19.689Z,10.35
2022-12-23T16:20:49.307Z,10.29
2022-12-23T16:23:16.532Z,10.35
2022-12-23T16:25:50.491Z,10.39
2022-12-23T16:28:27.980Z,10.43
2022-12-23T16:30:57.578Z,10.29
2022-12-23T16:33:27.320Z,10.31
2022-12-23T16:35:54.046Z,10.35
2022-12-23T16:38:24.687Z,10.25
2022-12-23T16:40:52.202Z,10.27
2022-12-23T16:43:19.898Z,10.24
2022-12-23T16:45:49.609Z,10.22
2022-12-23T16:48:28.000Z,10.27
2022-12-23T16:50:54.917Z,10.31
2022-12-23T16:53:21.831Z,10.30
2022-12-23T16:55:55.267Z,10.19
2022-12-23T16:58:29.729Z,10.06
2022-12-23T17:00:56.467Z,10.13
2022-12-23T17:03:22.880Z,10.19
2022-12-23T17:05:49.210Z,10.18
2022-12-23T17:08:15.826Z,10.12
2022-12-23T17:10:44.407Z,10.19
2022-12-23T17:13:15.693Z,10.16
2022-12-23T17:15:42.043Z,10.19
2022-12-23T17:18:12.463Z,10.10
2022-12-23T17:20:39.219Z,10.12
2022-12-23T17:23:05.981Z,10.13
2022-12-23T17:25:32.356Z,10.17
2022-12-23T17:27:58.664Z,10.16
2022-12-23T17:30:25.439Z,10.11
2022-12-23T17:32:54.108Z,10.17
2022-12-23T17:35:21.515Z,9.99
2022-12-23T17:37:47.931Z,10.08
2022-12-23T17:40:15.177Z,9.99
2022-12-23T17:42:42.133Z,10.02
2022-12-23T17:45:20.966Z,10.12
2022-12-23T17:47:47.360Z,10.18
2022-12-23T17:50:13.776Z,10.21
2022-12-23T17:52:40.131Z,10.22
2022-12-23T17:55:06.675Z,10.24
2022-12-23T17:57:33.124Z,10.26
2022-12-23T17:59:59.492Z,10.26
2022-12-23T18:02:35.057Z,10.24
2022-12-23T18:05:02.718Z,10.13
2022-12-23T18:07:29.063Z,10.00
2022-12-23T18:09:55.487Z,9.94
2022-12-23T18:12:34.315Z,10.03
2022-12-23T18:15:01.192Z,10.02
2022-12-23T18:17:27.601Z,9.96
2022-12-23T18:19:54.731Z,9.98
2022-12-23T18:22:22.531Z,10.05
2022-12-23T18:24:53.830Z,10.07
2022-12-23T18:27:23.923Z,9.96
2022-12-23T18:29:50.514Z,9.96
2022-12-23T18:32:21.677Z,9.88
2022-12-23T18:34:49.317Z,9.87
2022-12-23T18:37:16.094Z,9.92
2022-12-23T18:39:42.664Z,9.83
2022-12-23T18:42:11.319Z,9.87
2022-12-23T18:44:37.627Z,9.81
2022-12-23T18:47:04.413Z,9.88
2022-12-23T18:49:31.866Z,9.86
2022-12-23T18:51:58.209Z,9.90
2022-12-23T18:54:24.660Z,9.78
2022-12-23T18:56:51.061Z,9.81
2022-12-23T18:59:22.760Z,9.81
2022-12-23T19:01:56.120Z,9.63
2022-12-23T19:04:22.557Z,9.60
2022-12-23T19:06:48.924Z,9.63
2022-12-23T19:09:24.557Z,9.70
2022-12-23T19:11:51.636Z,9.64
2022-12-23T19:14:18.013Z,9.55
2022-12-23T19:16:50.824Z,9.58
2022-12-23T19:19:18.483Z,9.66
2022-12-23T19:21:44.899Z,9.74
2022-12-23T19:24:11.241Z,9.83
2022-12-23T19:26:37.596Z,9.86
2022-12-23T19:29:03.969Z,9.72
2022-12-23T19:31:30.477Z,9.75
2022-12-23T19:33:56.875Z,9.47
2022-12-23T19:36:23.464Z,9.43
2022-12-23T19:38:50.171Z,9.53
2022-12-23T19:41:16.910Z,9.49
2022-12-23T19:43:44.113Z,9.68
2022-12-23T19:46:11.201Z,9.80
2022-12-23T19:48:37.948Z,9.84
2022-12-23T19:51:06.523Z,9.90
2022-12-23T19:53:33.634Z,9.99
2022-12-23T19:56:02.157Z,10.06
2022-12-23T19:58:28.816Z,10.14
2022-12-23T20:01:04.712Z,10.14
2022-12-23T20:03:31.105Z,10.12
2022-12-23T20:05:57.466Z,10.08
2022-12-23T20:08:23.828Z,10.10
2022-12-23T20:10:50.217Z,10.14
2022-12-23T20:13:16.558Z,10.23
2022-12-23T20:15:42.970Z,10.47
2022-12-23T20:18:09.426Z,10.36
2022-12-23T20:20:36.762Z,10.34
2022-12-23T20:23:03.133Z,10.40
2022-12-23T20:25:29.544Z,10.39
2022-12-23T20:27:55.911Z,10.33
2022-12-23T20:30:22.333Z,10.40
2022-12-23T20:32:48.659Z,10.43
2022-12-23T20:35:15.035Z,10.47
2022-12-23T20:37:41.401Z,10.51
2022-12-23T20:40:11.114Z,10.53
2022-12-23T20:42:37.443Z,10.58
2022-12-23T20:45:04.241Z,10.61
2022-12-23T20:47:30.622Z,10.67
2022-12-23T20:49:57.499Z,10.70
2022-12-23T20:52:25.492Z,10.68
2022-12-23T20:54:51.812Z,10.70
2022-12-23T20:57:18.219Z,10.74
2022-12-23T20:59:45.763Z,10.76
2022-12-23T21:02:13.175Z,10.77
2022-12-23T21:04:39.677Z,10.78
2022-12-23T21:07:06.514Z,10.82
2022-12-23T21:09:33.164Z,10.82
2022-12-23T21:11:59.745Z,10.82
2022-12-23T21:14:26.097Z,10.86
2022-12-23T21:16:52.779Z,10.88
2022-12-23T21:19:20.445Z,10.90
2022-12-23T21:21:47.848Z,10.92
2022-12-23T21:24:14.403Z,10.95
2022-12-23T21:26:41.062Z,10.92
2022-12-23T21:29:08.914Z,10.92
2022-12-23T21:31:36.615Z,10.95
2022-12-23T21:34:03.065Z,11.00
2022-12-23T21:36:31.268Z,10.99
2022-12-23T21:38:58.157Z,11.08
2022-12-23T21:41:25.831Z,11.06
2022-12-23T21:43:52.170Z,11.07
2022-12-23T21:46:20.127Z,11.16
2022-12-23T21:48:47.226Z,11.16
2022-12-23T21:51:20.163Z,11.24
2022-12-23T21:53:47.371Z,11.20
2022-12-23T21:56:15.249Z,11.27
2022-12-23T21:58:41.902Z,11.27
2022-12-23T22:01:13.073Z,11.24
2022-12-23T22:03:39.518Z,11.24
2022-12-23T22:06:10.473Z,11.25
2022-12-23T22:08:37.236Z,11.38
2022-12-23T22:11:14.403Z,11.29
2022-12-23T22:13:40.997Z,11.24
2022-12-23T22:16:11.952Z,11.22
2022-12-23T22:18:39.042Z,11.24
2022-12-23T22:21:06.156Z,11.26
2022-12-23T22:23:32.652Z,11.25
2022-12-23T22:25:59.108Z,11.27
2022-12-23T22:28:25.591Z,11.28
2022-12-23T22:30:52.292Z,11.26
2022-12-23T22:33:18.753Z,11.19
2022-12-23T22:35:53.603Z,11.15
2022-12-23T22:38:20.088Z,11.12
2022-12-23T22:40:50.027Z,11.18
2022-12-23T22:43:16.450Z,11.12
2022-12-23T22:45:42.948Z,11.05
2022-12-23T22:48:09.443Z,10.98
2022-12-23T22:50:36.047Z,11.03
2022-12-23T22:53:02.720Z,11.10
2022-12-23T22:55:29.058Z,11.11
2022-12-23T22:57:55.885Z,11.09
2022-12-23T23:00:22.340Z,11.13
2022-12-23T23:02:49.067Z,11.16
2022-12-23T23:05:15.604Z,11.10
2022-12-23T23:07:42.103Z,11.19
2022-12-23T23:10:08.936Z,11.14
2022-12-23T23:12:35.316Z,11.16
2022-12-23T23:15:01.940Z,11.08
2022-12-23T23:17:28.903Z,11.17
2022-12-23T23:19:55.459Z,11.19
2022-12-23T23:22:23.088Z,11.10
2022-12-23T23:24:50.020Z,11.15
2022-12-23T23:27:16.454Z,11.10
2022-12-23T23:29:42.976Z,11.16
2022-12-23T23:32:09.804Z,11.09
2022-12-23T23:34:36.996Z,11.07
2022-12-23T23:37:03.860Z,11.06
2022-12-23T23:39:30.260Z,11.05
2022-12-23T23:41:56.695Z,11.05
2022-12-23T23:44:23.125Z,11.00
2022-12-23T23:46:49.467Z,11.02
2022-12-23T23:49:15.875Z,10.97
2022-12-23T23:51:42.313Z,11.04
2022-12-23T23:54:08.724Z,11.08
2022-12-23T23:56:38.748Z,11.10
2022-12-23T23:59:06.077Z,10.99
